createdAt,value
2018-10-18T00:01:59.144Z,12.13
2018-10-18T00:04:27.605Z,13.17
2018-10-18T00:06:55.923Z,13.87
2018-10-18T00:09:24.577Z,13.50
2018-10-18T00:11:53.317Z,13.40
2018-10-18T00:14:21.701Z,12.60
2018-10-18T00:16:50.639Z,12.50
2018-10-18T00:19:19.004Z,12.33
2018-10-18T00:21:47.348Z,13.27
2018-10-18T00:24:16.018Z,12.87
2018-10-18T00:26:44.195Z,12.67
2018-10-18T00:29:12.575Z,13.50
2018-10-18T00:31:41.316Z,13.13
2018-10-18T00:34:09.665Z,14.07
2018-10-18T00:36:37.991Z,13.63
2018-10-18T00:39:09.812Z,12.70
2018-10-18T00:41:38.165Z,14.43
2018-10-18T00:44:07.077Z,13.27
2018-10-18T00:46:35.685Z,14.83
2018-10-18T00:49:04.115Z,14.60
2018-10-18T00:51:32.461Z,16.80
2018-10-18T00:54:01.195Z,14.90
2018-10-18T00:56:29.597Z,15.97
2018-10-18T00:58:57.924Z,14.77
2018-10-18T01:01:26.560Z,13.83
2018-10-18T01:03:54.899Z,14.50
2018-10-18T01:06:23.223Z,12.90
2018-10-18T01:08:52.209Z,13.43
2018-10-18T01:11:20.911Z,12.50
2018-10-18T01:13:49.264Z,13.03
2018-10-18T01:16:18.270Z,14.90
2018-10-18T01:18:46.589Z,14.77
2018-10-18T01:21:14.981Z,13.03
2018-10-18T01:23:43.899Z,14.40
2018-10-18T01:26:12.336Z,13.63
2018-10-18T01:28:40.685Z,5.60
2018-10-18T01:31:09.557Z,4.53
2018-10-18T01:33:38.018Z,4.50
2018-10-18T01:36:06.432Z,9.07
2018-10-18T01:38:35.195Z,3.80
2018-10-18T01:41:03.686Z,3.43
2018-10-18T01:43:32.060Z,9.93
2018-10-18T01:46:01.058Z,3.67
2018-10-18T01:48:29.575Z,9.13
2018-10-18T01:50:57.928Z,10.73
2018-10-18T01:53:26.716Z,13.27
2018-10-18T01:55:55.097Z,11.23
2018-10-18T01:58:23.380Z,12.37
2018-10-18T02:00:52.966Z,11.90
2018-10-18T02:03:21.280Z,12.90
2018-10-18T02:05:49.606Z,9.70
2018-10-18T02:08:18.739Z,13.00
2018-10-18T02:10:46.987Z,3.83
2018-10-18T02:13:15.302Z,3.50
2018-10-18T02:15:44.270Z,3.23
2018-10-18T02:18:13.086Z,3.40
2018-10-18T02:20:41.297Z,3.30
2018-10-18T02:23:11.341Z,3.63
2018-10-18T02:25:39.640Z,8.03
2018-10-18T02:28:07.942Z,3.10
2018-10-18T02:30:36.583Z,4.03
2018-10-18T02:33:05.062Z,10.47
2018-10-18T02:35:33.448Z,10.57
2018-10-18T02:38:02.227Z,8.50
2018-10-18T02:40:30.578Z,6.60
2018-10-18T02:42:58.903Z,8.87
2018-10-18T02:45:27.877Z,10.00
2018-10-18T02:47:56.228Z,3.63
2018-10-18T02:50:24.568Z,2.80
2018-10-18T02:52:53.311Z,3.00
2018-10-18T02:55:21.617Z,4.40
2018-10-18T02:57:49.993Z,2.87
2018-10-18T03:00:20.299Z,3.27
2018-10-18T03:02:48.702Z,3.57
2018-10-18T03:05:17.011Z,2.40
2018-10-18T03:07:45.847Z,3.90
2018-10-18T03:10:14.471Z,3.07
2018-10-18T03:12:42.808Z,2.47
2018-10-18T03:15:11.688Z,2.57
2018-10-18T03:17:40.060Z,2.50
2018-10-18T03:20:08.416Z,2.40
2018-10-18T03:22:37.210Z,2.20
2018-10-18T03:25:06.704Z,2.73
2018-10-18T03:27:35.055Z,3.37
2018-10-18T03:30:04.237Z,2.40
2018-10-18T03:32:32.558Z,2.50
2018-10-18T03:35:00.844Z,2.30
2018-10-18T03:37:30.076Z,3.57
2018-10-18T03:39:58.526Z,2.87
2018-10-18T03:42:26.844Z,3.13
2018-10-18T03:44:55.764Z,2.30
2018-10-18T03:47:24.860Z,2.83
2018-10-18T03:49:53.248Z,2.30
2018-10-18T03:52:22.394Z,2.60
2018-10-18T03:54:50.988Z,2.67
2018-10-18T03:57:19.320Z,2.40
2018-10-18T03:59:48.137Z,2.00
2018-10-18T04:02:16.960Z,2.07
2018-10-18T04:04:45.311Z,2.57
2018-10-18T04:07:14.495Z,2.43
2018-10-18T04:09:43.425Z,2.30
2018-10-18T04:12:11.823Z,3.17
2018-10-18T04:14:40.375Z,2.77
2018-10-18T04:17:08.884Z,2.67
2018-10-18T04:19:37.238Z,2.67
2018-10-18T04:22:07.102Z,2.80
2018-10-18T04:24:35.459Z,2.50
2018-10-18T04:27:03.996Z,2.60
2018-10-18T04:29:32.882Z,2.17
2018-10-18T04:32:01.541Z,2.07
2018-10-18T04:34:29.877Z,2.13
2018-10-18T04:36:58.519Z,2.10
2018-10-18T04:39:26.816Z,2.10
2018-10-18T04:41:55.181Z,2.20
2018-10-18T04:44:24.047Z,2.00
2018-10-18T04:46:52.400Z,1.70
2018-10-18T04:49:20.722Z,2.60
2018-10-18T04:51:49.409Z,2.50
2018-10-18T04:54:17.719Z,1.70
2018-10-18T04:56:46.075Z,2.20
2018-10-18T04:59:14.889Z,2.23
2018-10-18T05:01:43.227Z,2.00
2018-10-18T05:04:11.562Z,2.80
2018-10-18T05:06:40.510Z,1.80
2018-10-18T05:09:09.042Z,1.97
2018-10-18T05:11:37.438Z,2.40
2018-10-18T05:14:06.167Z,2.10
2018-10-18T05:16:34.489Z,2.50
2018-10-18T05:19:02.958Z,1.90
2018-10-18T05:21:31.624Z,2.27
2018-10-18T05:23:59.965Z,1.70
2018-10-18T05:26:28.345Z,2.00
2018-10-18T05:28:57.039Z,2.47
2018-10-18T05:31:25.374Z,2.17
2018-10-18T05:33:53.735Z,1.90
2018-10-18T05:36:22.901Z,1.80
2018-10-18T05:38:51.323Z,2.47
2018-10-18T05:41:19.637Z,2.50
2018-10-18T05:43:48.338Z,2.30
2018-10-18T05:46:16.648Z,2.57
2018-10-18T05:48:44.985Z,2.97
2018-10-18T05:51:14.540Z,2.57
2018-10-18T05:53:42.894Z,2.40
2018-10-18T05:56:11.205Z,3.17
2018-10-18T05:58:40.654Z,2.63
2018-10-18T06:01:09.232Z,2.83
2018-10-18T06:03:37.492Z,2.40
2018-10-18T06:06:06.092Z,2.60
2018-10-18T06:08:34.600Z,2.70
2018-10-18T06:11:14.322Z,2.30
2018-10-18T06:13:42.659Z,2.60
2018-10-18T06:16:11.556Z,2.43
2018-10-18T06:18:40.370Z,2.53
2018-10-18T06:21:08.835Z,2.80
2018-10-18T06:23:37.246Z,2.60
2018-10-18T06:26:06.670Z,2.50
2018-10-18T06:28:35.099Z,2.20
2018-10-18T06:31:03.531Z,2.40
2018-10-18T06:33:32.093Z,2.60
2018-10-18T06:36:00.482Z,2.43
2018-10-18T06:38:28.853Z,2.57
2018-10-18T06:40:57.582Z,2.50
2018-10-18T06:43:25.857Z,2.30
2018-10-18T06:45:54.209Z,2.63
2018-10-18T06:48:23.023Z,2.50
2018-10-18T06:50:51.409Z,2.37
2018-10-18T06:53:19.804Z,2.10
2018-10-18T06:55:48.630Z,2.00
2018-10-18T06:58:16.986Z,2.10
2018-10-18T07:00:45.304Z,1.97
2018-10-18T07:03:13.859Z,2.27
2018-10-18T07:05:42.166Z,2.17
2018-10-18T07:08:10.514Z,2.53
2018-10-18T07:10:39.219Z,2.33
2018-10-18T07:13:07.513Z,2.00
2018-10-18T07:15:35.825Z,2.23
2018-10-18T07:18:04.567Z,2.00
2018-10-18T07:20:32.887Z,2.33
2018-10-18T07:23:01.217Z,2.20
2018-10-18T07:25:30.105Z,2.50
2018-10-18T07:27:58.495Z,2.03
2018-10-18T07:30:26.897Z,2.23
2018-10-18T07:32:55.629Z,2.23
2018-10-18T07:35:23.943Z,2.00
2018-10-18T07:37:52.370Z,2.40
2018-10-18T07:40:21.343Z,2.40
2018-10-18T07:42:49.625Z,2.00
2018-10-18T07:45:17.941Z,2.30
2018-10-18T07:47:46.925Z,2.27
2018-10-18T07:50:15.273Z,2.37
2018-10-18T07:52:43.635Z,2.00
2018-10-18T07:55:12.473Z,2.40
2018-10-18T07:57:40.815Z,2.03
2018-10-18T08:00:17.594Z,1.90
2018-10-18T08:02:46.115Z,2.20
2018-10-18T08:05:14.785Z,2.00
2018-10-18T08:07:44.314Z,2.07
2018-10-18T08:10:15.368Z,2.13
2018-10-18T08:12:43.708Z,2.80
2018-10-18T08:15:13.452Z,1.80
2018-10-18T08:17:42.407Z,2.13
2018-10-18T08:20:11.406Z,2.60
2018-10-18T08:22:40.724Z,2.80
2018-10-18T08:25:09.129Z,2.30
2018-10-18T08:27:37.739Z,4.13
2018-10-18T08:30:09.695Z,10.60
2018-10-18T08:32:38.070Z,11.40
2018-10-18T08:35:07.212Z,8.67
2018-10-18T08:37:36.016Z,6.83
2018-10-18T08:40:04.600Z,6.83
2018-10-18T08:42:32.896Z,6.30
2018-10-18T08:45:01.542Z,6.87
2018-10-18T08:47:29.889Z,6.40
2018-10-18T08:49:58.658Z,6.07
2018-10-18T08:52:27.599Z,4.53
2018-10-18T08:54:55.988Z,4.60
2018-10-18T08:57:24.296Z,4.50
2018-10-18T08:59:53.036Z,3.77
2018-10-18T09:02:21.340Z,4.03
2018-10-18T09:04:49.675Z,3.23
2018-10-18T09:07:18.575Z,3.30
2018-10-18T09:09:46.877Z,2.83
2018-10-18T09:12:15.290Z,3.30
2018-10-18T09:14:43.832Z,2.70
2018-10-18T09:17:12.185Z,2.60
2018-10-18T09:19:40.502Z,2.50
2018-10-18T09:22:16.544Z,2.60
2018-10-18T09:24:44.862Z,2.23
2018-10-18T09:27:13.213Z,2.33
2018-10-18T09:29:41.770Z,2.33
2018-10-18T09:32:10.269Z,2.10
2018-10-18T09:34:38.781Z,2.17
2018-10-18T09:37:07.422Z,1.90
2018-10-18T09:39:35.765Z,2.17
2018-10-18T09:42:04.154Z,1.87
2018-10-18T09:44:33.146Z,2.10
2018-10-18T09:47:01.413Z,2.00
2018-10-18T09:49:29.744Z,1.97
2018-10-18T09:51:58.786Z,1.83
2018-10-18T09:54:27.104Z,1.97
2018-10-18T09:56:55.445Z,2.07
2018-10-18T09:59:31.224Z,1.83
2018-10-18T10:02:05.028Z,1.63
2018-10-18T10:04:34.045Z,1.73
2018-10-18T10:07:02.494Z,1.60
2018-10-18T10:09:30.800Z,1.70
2018-10-18T10:11:59.389Z,1.77
2018-10-18T10:14:28.007Z,1.73
2018-10-18T10:16:56.576Z,1.70
2018-10-18T10:19:25.649Z,1.50
2018-10-18T10:21:54.108Z,1.73
2018-10-18T10:24:23.187Z,1.87
2018-10-18T10:26:52.102Z,1.37
2018-10-18T10:29:20.517Z,1.57
2018-10-18T10:31:48.867Z,1.50
2018-10-18T10:34:17.436Z,1.67
2018-10-18T10:36:45.832Z,1.60
2018-10-18T10:39:14.368Z,1.43
2018-10-18T10:41:42.831Z,2.00
2018-10-18T10:44:11.408Z,1.93
2018-10-18T10:46:40.671Z,1.40
2018-10-18T10:49:09.810Z,1.70
2018-10-18T10:51:38.356Z,1.60
2018-10-18T10:54:07.953Z,2.07
2018-10-18T10:56:36.964Z,1.50
2018-10-18T10:59:13.761Z,1.50
2018-10-18T11:01:42.531Z,1.70
2018-10-18T11:04:10.874Z,1.83
2018-10-18T11:06:39.272Z,1.93
2018-10-18T11:09:09.383Z,1.53
2018-10-18T11:11:37.708Z,1.50
2018-10-18T11:14:06.134Z,1.70
2018-10-18T11:16:34.656Z,1.60
2018-10-18T11:19:03.004Z,1.27
2018-10-18T11:21:31.429Z,1.87
2018-10-18T11:23:59.973Z,1.53
2018-10-18T11:26:28.373Z,1.40
2018-10-18T11:28:56.684Z,1.80
2018-10-18T11:31:25.725Z,1.50
2018-10-18T11:33:54.154Z,1.60
2018-10-18T11:36:22.503Z,1.77
2018-10-18T11:38:51.014Z,1.80
2018-10-18T11:41:19.376Z,1.70
2018-10-18T11:43:47.714Z,1.80
2018-10-18T11:46:16.277Z,1.70
2018-10-18T11:48:44.670Z,1.53
2018-10-18T11:51:13.123Z,1.90
2018-10-18T11:53:41.677Z,1.97
2018-10-18T11:56:10.114Z,2.27
2018-10-18T11:58:38.513Z,1.70
2018-10-18T12:01:07.055Z,1.90
2018-10-18T12:03:35.411Z,1.40
2018-10-18T12:06:03.807Z,1.43
2018-10-18T12:08:32.432Z,1.63
2018-10-18T12:11:00.840Z,1.77
2018-10-18T12:13:29.555Z,1.60
2018-10-18T12:15:58.089Z,1.93
2018-10-18T12:18:26.463Z,1.70
2018-10-18T12:20:54.866Z,1.50
2018-10-18T12:23:23.720Z,1.30
2018-10-18T12:25:52.377Z,1.43
2018-10-18T12:28:20.864Z,1.80
2018-10-18T12:30:49.734Z,1.47
2018-10-18T12:33:18.136Z,1.47
2018-10-18T12:35:46.495Z,1.50
2018-10-18T12:38:15.407Z,1.30
2018-10-18T12:40:43.791Z,1.37
2018-10-18T12:43:12.121Z,1.43
2018-10-18T12:45:40.978Z,1.30
2018-10-18T12:48:09.489Z,1.33
2018-10-18T12:50:37.711Z,1.50
2018-10-18T12:53:06.159Z,1.70
2018-10-18T12:55:34.509Z,1.50
2018-10-18T12:58:02.866Z,1.30
2018-10-18T13:00:31.661Z,1.63
2018-10-18T13:02:59.995Z,1.20
2018-10-18T13:05:28.329Z,1.13
2018-10-18T13:07:56.948Z,1.50
2018-10-18T13:10:25.297Z,1.30
2018-10-18T13:12:53.695Z,1.47
2018-10-18T13:15:22.126Z,1.43
2018-10-18T13:17:50.473Z,1.40
2018-10-18T13:20:18.863Z,1.20
2018-10-18T13:22:47.381Z,1.27
2018-10-18T13:25:15.755Z,1.60
2018-10-18T13:27:44.084Z,1.17
2018-10-18T13:30:13.082Z,1.40
2018-10-18T13:32:41.568Z,1.30
2018-10-18T13:35:10.586Z,1.00
2018-10-18T13:37:39.262Z,1.00
2018-10-18T13:40:08.284Z,1.50
2018-10-18T13:42:36.713Z,1.00
2018-10-18T13:45:06.166Z,1.13
2018-10-18T13:47:34.793Z,1.00
2018-10-18T13:50:03.254Z,1.30
2018-10-18T13:52:31.706Z,1.40
2018-10-18T13:55:00.015Z,1.17
2018-10-18T13:57:28.386Z,1.20
2018-10-18T14:00:28.778Z,1.10
2018-10-18T14:02:57.222Z,1.23
2018-10-18T14:05:26.159Z,1.07
2018-10-18T14:07:55.682Z,1.40
2018-10-18T14:10:24.074Z,1.40
2018-10-18T14:12:53.098Z,1.03
2018-10-18T14:15:21.556Z,1.20
2018-10-18T14:17:50.011Z,1.27
2018-10-18T14:20:18.474Z,1.00
2018-10-18T14:22:47.010Z,1.33
2018-10-18T14:25:15.404Z,1.10
2018-10-18T14:27:43.832Z,1.00
2018-10-18T14:30:13.485Z,1.50
2018-10-18T14:32:41.875Z,1.10
2018-10-18T14:35:11.730Z,1.33
2018-10-18T14:37:40.206Z,1.30
2018-10-18T14:40:10.385Z,1.10
2018-10-18T14:42:38.816Z,1.30
2018-10-18T14:45:08.339Z,1.07
2018-10-18T14:47:36.837Z,0.90
2018-10-18T14:50:06.795Z,1.00
2018-10-18T14:52:35.503Z,0.90
2018-10-18T14:55:04.029Z,1.27
2018-10-18T14:57:32.720Z,0.97
2018-10-18T15:00:01.370Z,1.20
2018-10-18T15:02:29.790Z,1.10
2018-10-18T15:04:58.452Z,0.93
2018-10-18T15:07:27.013Z,1.27
2018-10-18T15:09:55.537Z,0.90
2018-10-18T15:12:24.170Z,1.10
2018-10-18T15:14:52.707Z,0.80
2018-10-18T15:17:21.270Z,1.00
2018-10-18T15:19:50.196Z,1.10
2018-10-18T15:22:19.191Z,1.10
2018-10-18T15:24:47.961Z,0.97
2018-10-18T15:27:18.869Z,1.23
2018-10-18T15:29:47.441Z,0.83
2018-10-18T15:32:15.897Z,3.57
2018-10-18T15:34:44.325Z,1.23
2018-10-18T15:37:13.081Z,0.90
2018-10-18T15:39:41.633Z,1.20
2018-10-18T15:42:10.008Z,1.33
2018-10-18T15:44:38.556Z,0.90
2018-10-18T15:47:07.012Z,1.10
2018-10-18T15:49:35.636Z,0.93
2018-10-18T15:52:04.280Z,1.30
2018-10-18T15:54:32.883Z,0.90
2018-10-18T15:57:01.369Z,1.10
2018-10-18T15:59:29.989Z,0.90
2018-10-18T16:01:58.527Z,1.00
2018-10-18T16:04:27.098Z,1.40
2018-10-18T16:06:55.594Z,2.13
2018-10-18T16:09:23.940Z,1.03
2018-10-18T16:11:52.468Z,1.17
2018-10-18T16:14:20.958Z,1.10
2018-10-18T16:16:49.298Z,1.27
2018-10-18T16:19:17.898Z,1.00
2018-10-18T16:21:46.530Z,1.10
2018-10-18T16:24:14.932Z,1.10
2018-10-18T16:26:43.495Z,1.10
2018-10-18T16:29:12.290Z,1.40
2018-10-18T16:31:40.620Z,1.13
2018-10-18T16:34:09.102Z,1.20
2018-10-18T16:36:38.485Z,1.20
2018-10-18T16:39:09.247Z,1.57
2018-10-18T16:41:38.234Z,0.90
2018-10-18T16:44:07.489Z,1.13
2018-10-18T16:46:36.141Z,2.33
2018-10-18T16:49:05.611Z,1.50
2018-10-18T16:51:36.082Z,1.67
2018-10-18T16:54:05.725Z,1.50
2018-10-18T16:56:34.735Z,1.03
2018-10-18T16:59:03.592Z,1.40
2018-10-18T17:01:32.392Z,1.43
2018-10-18T17:04:00.844Z,2.00
2018-10-18T17:06:29.487Z,1.60
2018-10-18T17:08:57.940Z,0.73
2018-10-18T17:11:26.384Z,1.30
2018-10-18T17:13:54.938Z,1.80
2018-10-18T17:16:23.353Z,1.97
2018-10-18T17:18:51.748Z,1.40
2018-10-18T17:21:20.488Z,1.87
2018-10-18T17:23:48.746Z,2.33
2018-10-18T17:26:17.255Z,1.60
2018-10-18T17:28:45.769Z,1.77
2018-10-18T17:31:14.147Z,2.60
2018-10-18T17:33:42.741Z,2.10
2018-10-18T17:36:11.517Z,1.70
2018-10-18T17:38:39.794Z,2.00
2018-10-18T17:41:08.225Z,1.53
2018-10-18T17:43:36.675Z,2.10
2018-10-18T17:46:05.506Z,1.50
2018-10-18T17:48:34.073Z,2.00
2018-10-18T17:51:02.720Z,1.73
2018-10-18T17:53:31.206Z,1.70
2018-10-18T17:55:59.744Z,2.00
2018-10-18T17:58:28.259Z,2.33
2018-10-18T18:00:56.625Z,2.13
2018-10-18T18:03:25.219Z,1.93
2018-10-18T18:05:53.864Z,2.20
2018-10-18T18:08:22.570Z,2.37
2018-10-18T18:10:51.004Z,2.63
2018-10-18T18:13:20.772Z,1.80
2018-10-18T18:15:49.186Z,1.27
2018-10-18T18:18:17.645Z,2.37
2018-10-18T18:20:46.420Z,2.00
2018-10-18T18:23:14.788Z,1.17
2018-10-18T18:25:43.201Z,1.87
2018-10-18T18:28:11.658Z,0.90
2018-10-18T18:30:40.035Z,1.87
2018-10-18T18:33:08.402Z,1.50
2018-10-18T18:35:37.009Z,2.20
2018-10-18T18:38:05.434Z,2.03
2018-10-18T18:40:33.865Z,1.50
2018-10-18T18:43:02.441Z,2.13
2018-10-18T18:45:34.245Z,1.83
2018-10-18T18:48:03.510Z,1.97
2018-10-18T18:50:32.003Z,2.13
2018-10-18T18:53:00.461Z,1.53
2018-10-18T18:55:28.973Z,1.67
2018-10-18T18:57:57.367Z,2.07
2018-10-18T19:00:26.213Z,1.10
2018-10-18T19:02:55.018Z,1.80
2018-10-18T19:05:23.508Z,2.93
2018-10-18T19:07:51.937Z,1.63
2018-10-18T19:10:20.635Z,3.03
2018-10-18T19:12:49.075Z,2.77
2018-10-18T19:15:17.439Z,1.33
2018-10-18T19:17:46.253Z,2.70
2018-10-18T19:20:14.679Z,1.70
2018-10-18T19:22:43.149Z,1.83
2018-10-18T19:25:11.947Z,2.57
2018-10-18T19:27:40.319Z,3.03
2018-10-18T19:30:09.839Z,2.07
2018-10-18T19:32:38.978Z,2.03
2018-10-18T19:35:07.429Z,3.17
2018-10-18T19:37:35.799Z,2.17
2018-10-18T19:40:05.161Z,2.20
2018-10-18T19:42:33.556Z,2.37
2018-10-18T19:45:01.909Z,2.60
2018-10-18T19:47:30.744Z,2.33
2018-10-18T19:49:59.094Z,2.30
2018-10-18T19:52:27.591Z,2.10
2018-10-18T19:54:56.131Z,2.13
2018-10-18T19:57:24.456Z,2.50
2018-10-18T19:59:52.865Z,2.17
2018-10-18T20:02:21.866Z,2.43
2018-10-18T20:04:50.245Z,1.90
2018-10-18T20:07:18.571Z,2.57
2018-10-18T20:09:47.186Z,2.93
2018-10-18T20:12:15.618Z,3.00
2018-10-18T20:14:43.962Z,2.00
2018-10-18T20:17:12.776Z,2.60
2018-10-18T20:19:41.131Z,2.67
2018-10-18T20:22:10.774Z,1.90
2018-10-18T20:24:39.638Z,2.43
2018-10-18T20:27:08.508Z,2.80
2018-10-18T20:29:36.954Z,3.13
2018-10-18T20:32:05.900Z,2.93
2018-10-18T20:34:34.372Z,2.67
2018-10-18T20:37:02.777Z,3.20
2018-10-18T20:39:31.670Z,1.60
2018-10-18T20:42:00.413Z,3.10
2018-10-18T20:44:28.742Z,2.87
2018-10-18T20:46:57.500Z,3.07
2018-10-18T20:49:25.834Z,3.63
2018-10-18T20:51:54.933Z,3.03
2018-10-18T20:54:23.509Z,3.00
2018-10-18T20:56:52.893Z,3.17
2018-10-18T20:59:21.281Z,2.37
2018-10-18T21:01:49.914Z,1.60
2018-10-18T21:04:18.253Z,1.83
2018-10-18T21:06:46.620Z,1.40
2018-10-18T21:09:15.568Z,2.87
2018-10-18T21:11:43.971Z,3.27
2018-10-18T21:14:12.421Z,3.20
2018-10-18T21:16:41.197Z,3.40
2018-10-18T21:19:09.645Z,3.53
2018-10-18T21:21:38.028Z,3.20
2018-10-18T21:24:06.719Z,3.20
2018-10-18T21:26:35.133Z,3.10
2018-10-18T21:29:03.686Z,2.97
2018-10-18T21:31:32.352Z,3.40
2018-10-18T21:34:01.141Z,2.90
2018-10-18T21:36:29.445Z,3.07
2018-10-18T21:38:58.337Z,3.00
2018-10-18T21:41:26.719Z,3.10
2018-10-18T21:43:55.075Z,3.27
2018-10-18T21:46:23.733Z,3.40
2018-10-18T21:48:52.168Z,2.33
2018-10-18T21:51:20.554Z,3.27
2018-10-18T21:53:49.204Z,3.30
2018-10-18T21:56:17.575Z,2.33
2018-10-18T21:58:45.975Z,3.20
2018-10-18T22:01:14.776Z,3.03
2018-10-18T22:03:43.186Z,3.57
2018-10-18T22:06:11.567Z,3.07
2018-10-18T22:08:40.119Z,3.73
2018-10-18T22:11:08.505Z,2.97
2018-10-18T22:13:36.809Z,3.13
2018-10-18T22:16:06.155Z,3.40
2018-10-18T22:18:34.552Z,3.30
2018-10-18T22:21:02.940Z,2.67
2018-10-18T22:23:31.615Z,2.07
2018-10-18T22:25:59.991Z,2.73
2018-10-18T22:28:28.380Z,3.17
2018-10-18T22:30:57.046Z,3.00
2018-10-18T22:33:25.381Z,2.17
2018-10-18T22:35:53.774Z,3.40
2018-10-18T22:38:22.672Z,1.43
2018-10-18T22:40:50.990Z,3.20
2018-10-18T22:43:19.414Z,3.07
2018-10-18T22:45:53.458Z,1.80
2018-10-18T22:48:23.031Z,2.90
2018-10-18T22:50:51.464Z,1.53
2018-10-18T22:53:20.181Z,3.43
2018-10-18T22:55:48.916Z,2.13
2018-10-18T22:58:17.485Z,3.33
2018-10-18T23:00:48.440Z,3.33
2018-10-18T23:03:18.240Z,3.10
2018-10-18T23:05:47.052Z,1.97
2018-10-18T23:08:15.929Z,3.50
2018-10-18T23:10:44.736Z,2.10
2018-10-18T23:13:13.044Z,2.90
2018-10-18T23:15:41.591Z,3.10
2018-10-18T23:18:10.848Z,3.17
2018-10-18T23:20:40.172Z,2.53
2018-10-18T23:23:09.082Z,2.53
2018-10-18T23:25:37.504Z,2.77
2018-10-18T23:28:05.876Z,3.27
2018-10-18T23:30:34.330Z,3.20
2018-10-18T23:33:02.725Z,2.90
2018-10-18T23:35:31.102Z,1.37
2018-10-18T23:37:59.941Z,1.30
2018-10-18T23:40:28.397Z,2.97
2018-10-18T23:42:56.804Z,1.73
2018-10-18T23:45:25.462Z,3.37
2018-10-18T23:47:54.085Z,3.60
2018-10-18T23:50:22.977Z,1.60
2018-10-18T23:52:51.695Z,3.63
2018-10-18T23:55:20.239Z,3.33
2018-10-18T23:57:48.677Z,3.00
